sensor_id;sensor_type;location;lat;lon;timestamp;P1;durP1;ratioP1;P2;durP2;ratioP2
12956;SDS011;6543;48.836;10.092;2023-08-21T00:01:39;10.85;;;6.32;;
12956;SDS011;6543;48.836;10.092;2023-08-21T00:04:06;12.77;;;6.60;;
12956;SDS011;6543;48.836;10.092;2023-08-21T00:06:33;6.72;;;5.80;;
12956;SDS011;6543;48.836;10.092;2023-08-21T00:09:00;7.95;;;5.63;;
12956;SDS011;6543;48.836;10.092;2023-08-21T00:11:27;9.05;;;5.85;;
12956;SDS011;6543;48.836;10.092;2023-08-21T00:13:55;8.57;;;5.65;;
12956;SDS011;6543;48.836;10.092;2023-08-21T00:16:22;5.97;;;5.38;;
12956;SDS011;6543;48.836;10.092;2023-08-21T00:18:49;6.63;;;5.80;;
12956;SDS011;6543;48.836;10.092;2023-08-21T00:21:16;7.80;;;5.68;;
12956;SDS011;6543;48.836;10.092;2023-08-21T00:23:43;6.18;;;5.47;;
12956;SDS011;6543;48.836;10.092;2023-08-21T00:26:09;9.38;;;5.50;;
12956;SDS011;6543;48.836;10.092;2023-08-21T00:28:36;7.88;;;5.50;;
12956;SDS011;6543;48.836;10.092;2023-08-21T00:31:05;9.52;;;5.57;;
12956;SDS011;6543;48.836;10.092;2023-08-21T00:33:32;6.80;;;5.90;;
12956;SDS011;6543;48.836;10.092;2023-08-21T00:36:00;8.18;;;6.28;;
12956;SDS011;6543;48.836;10.092;2023-08-21T00:38:26;9.23;;;5.90;;
12956;SDS011;6543;48.836;10.092;2023-08-21T00:40:53;10.30;;;5.80;;
12956;SDS011;6543;48.836;10.092;2023-08-21T00:43:20;9.75;;;6.28;;
12956;SDS011;6543;48.836;10.092;2023-08-21T00:45:47;10.57;;;6.50;;
12956;SDS011;6543;48.836;10.092;2023-08-21T00:48:17;11.52;;;6.65;;
12956;SDS011;6543;48.836;10.092;2023-08-21T00:50:44;11.68;;;7.05;;
12956;SDS011;6543;48.836;10.092;2023-08-21T00:53:11;10.30;;;6.88;;
12956;SDS011;6543;48.836;10.092;2023-08-21T00:55:38;11.88;;;6.60;;
12956;SDS011;6543;48.836;10.092;2023-08-21T00:58:08;7.82;;;6.18;;
12956;SDS011;6543;48.836;10.092;2023-08-21T01:00:37;7.75;;;7.05;;
12956;SDS011;6543;48.836;10.092;2023-08-21T01:03:05;6.88;;;5.90;;
12956;SDS011;6543;48.836;10.092;2023-08-21T01:05:33;7.00;;;6.28;;
12956;SDS011;6543;48.836;10.092;2023-08-21T01:08:01;9.60;;;6.88;;
12956;SDS011;6543;48.836;10.092;2023-08-21T01:10:34;8.18;;;6.55;;
12956;SDS011;6543;48.836;10.092;2023-08-21T01:13:09;6.20;;;5.55;;
12956;SDS011;6543;48.836;10.092;2023-08-21T01:15:41;7.07;;;5.80;;
12956;SDS011;6543;48.836;10.092;2023-08-21T01:18:10;6.32;;;5.70;;
12956;SDS011;6543;48.836;10.092;2023-08-21T01:20:39;8.25;;;5.70;;
12956;SDS011;6543;48.836;10.092;2023-08-21T01:23:07;8.75;;;5.63;;
12956;SDS011;6543;48.836;10.092;2023-08-21T01:25:35;6.88;;;5.97;;
12956;SDS011;6543;48.836;10.092;2023-08-21T01:28:03;10.93;;;6.57;;
12956;SDS011;6543;48.836;10.092;2023-08-21T01:30:30;9.65;;;6.03;;
12956;SDS011;6543;48.836;10.092;2023-08-21T01:33:00;7.85;;;6.07;;
12956;SDS011;6543;48.836;10.092;2023-08-21T01:35:30;6.93;;;6.20;;
12956;SDS011;6543;48.836;10.092;2023-08-21T01:37:59;6.55;;;5.78;;
12956;SDS011;6543;48.836;10.092;2023-08-21T01:40:27;9.60;;;6.32;;
12956;SDS011;6543;48.836;10.092;2023-08-21T01:42:55;7.13;;;6.00;;
12956;SDS011;6543;48.836;10.092;2023-08-21T01:45:22;7.82;;;6.07;;
12956;SDS011;6543;48.836;10.092;2023-08-21T01:47:49;8.23;;;5.90;;
12956;SDS011;6543;48.836;10.092;2023-08-21T01:50:16;8.77;;;5.60;;
12956;SDS011;6543;48.836;10.092;2023-08-21T01:52:43;7.60;;;5.88;;
12956;SDS011;6543;48.836;10.092;2023-08-21T01:55:10;8.80;;;5.47;;
12956;SDS011;6543;48.836;10.092;2023-08-21T01:57:37;6.40;;;5.90;;
12956;SDS011;6543;48.836;10.092;2023-08-21T02:00:06;9.65;;;6.05;;
12956;SDS011;6543;48.836;10.092;2023-08-21T02:02:33;7.95;;;6.22;;
12956;SDS011;6543;48.836;10.092;2023-08-21T02:05:00;6.80;;;6.18;;
12956;SDS011;6543;48.836;10.092;2023-08-21T02:07:28;7.88;;;6.40;;
12956;SDS011;6543;48.836;10.092;2023-08-21T02:09:55;7.85;;;6.82;;
12956;SDS011;6543;48.836;10.092;2023-08-21T02:12:22;10.45;;;6.55;;
12956;SDS011;6543;48.836;10.092;2023-08-21T02:14:49;10.07;;;6.88;;
12956;SDS011;6543;48.836;10.092;2023-08-21T02:17:17;9.00;;;6.75;;
12956;SDS011;6543;48.836;10.092;2023-08-21T02:19:43;7.40;;;6.70;;
12956;SDS011;6543;48.836;10.092;2023-08-21T02:22:10;7.10;;;6.38;;
12956;SDS011;6543;48.836;10.092;2023-08-21T02:24:37;12.70;;;6.68;;
12956;SDS011;6543;48.836;10.092;2023-08-21T02:27:04;7.50;;;6.80;;
12956;SDS011;6543;48.836;10.092;2023-08-21T02:29:31;11.55;;;6.65;;
12956;SDS011;6543;48.836;10.092;2023-08-21T02:31:58;7.53;;;6.70;;
12956;SDS011;6543;48.836;10.092;2023-08-21T02:34:26;9.05;;;6.38;;
12956;SDS011;6543;48.836;10.092;2023-08-21T02:36:53;10.25;;;7.03;;
12956;SDS011;6543;48.836;10.092;2023-08-21T02:39:20;9.25;;;6.70;;
12956;SDS011;6543;48.836;10.092;2023-08-21T02:41:46;9.10;;;6.93;;
12956;SDS011;6543;48.836;10.092;2023-08-21T02:44:13;13.85;;;7.15;;
12956;SDS011;6543;48.836;10.092;2023-08-21T02:46:40;8.18;;;6.82;;
12956;SDS011;6543;48.836;10.092;2023-08-21T02:49:07;9.55;;;6.22;;
12956;SDS011;6543;48.836;10.092;2023-08-21T02:51:35;7.78;;;6.10;;
12956;SDS011;6543;48.836;10.092;2023-08-21T02:54:02;7.03;;;6.32;;
12956;SDS011;6543;48.836;10.092;2023-08-21T02:56:29;8.55;;;6.90;;
12956;SDS011;6543;48.836;10.092;2023-08-21T02:58:56;13.07;;;6.50;;
12956;SDS011;6543;48.836;10.092;2023-08-21T03:01:22;8.00;;;6.25;;
12956;SDS011;6543;48.836;10.092;2023-08-21T03:03:49;7.32;;;6.40;;
12956;SDS011;6543;48.836;10.092;2023-08-21T03:06:16;12.68;;;6.43;;
12956;SDS011;6543;48.836;10.092;2023-08-21T03:08:44;6.72;;;6.13;;
12956;SDS011;6543;48.836;10.092;2023-08-21T03:11:11;8.98;;;6.63;;
12956;SDS011;6543;48.836;10.092;2023-08-21T03:13:39;9.40;;;6.75;;
12956;SDS011;6543;48.836;10.092;2023-08-21T03:16:06;7.63;;;6.35;;
12956;SDS011;6543;48.836;10.092;2023-08-21T03:18:34;7.03;;;6.40;;
12956;SDS011;6543;48.836;10.092;2023-08-21T03:21:19;9.30;;;6.70;;
12956;SDS011;6543;48.836;10.092;2023-08-21T03:23:49;7.30;;;6.40;;
12956;SDS011;6543;48.836;10.092;2023-08-21T03:26:16;12.30;;;6.82;;
12956;SDS011;6543;48.836;10.092;2023-08-21T03:28:43;10.35;;;7.70;;
12956;SDS011;6543;48.836;10.092;2023-08-21T03:31:10;9.20;;;6.88;;
12956;SDS011;6543;48.836;10.092;2023-08-21T03:33:37;8.65;;;6.85;;
12956;SDS011;6543;48.836;10.092;2023-08-21T03:36:04;8.18;;;6.85;;
12956;SDS011;6543;48.836;10.092;2023-08-21T03:38:31;10.50;;;7.00;;
12956;SDS011;6543;48.836;10.092;2023-08-21T03:40:59;13.90;;;6.95;;
12956;SDS011;6543;48.836;10.092;2023-08-21T03:43:26;7.47;;;6.65;;
12956;SDS011;6543;48.836;10.092;2023-08-21T03:45:53;8.15;;;6.97;;
12956;SDS011;6543;48.836;10.092;2023-08-21T03:48:20;11.02;;;6.90;;
12956;SDS011;6543;48.836;10.092;2023-08-21T03:50:47;8.23;;;7.43;;
12956;SDS011;6543;48.836;10.092;2023-08-21T03:53:15;9.23;;;7.80;;
12956;SDS011;6543;48.836;10.092;2023-08-21T03:55:41;10.05;;;7.43;;
12956;SDS011;6543;48.836;10.092;2023-08-21T03:58:10;8.63;;;7.72;;
12956;SDS011;6543;48.836;10.092;2023-08-21T04:00:37;9.77;;;7.70;;
12956;SDS011;6543;48.836;10.092;2023-08-21T04:03:03;11.73;;;8.10;;
12956;SDS011;6543;48.836;10.092;2023-08-21T04:05:30;10.63;;;8.35;;
12956;SDS011;6543;48.836;10.092;2023-08-21T04:07:57;8.63;;;7.72;;
12956;SDS011;6543;48.836;10.092;2023-08-21T04:10:24;8.77;;;7.93;;
12956;SDS011;6543;48.836;10.092;2023-08-21T04:12:51;9.95;;;7.47;;
12956;SDS011;6543;48.836;10.092;2023-08-21T04:15:19;11.02;;;7.85;;
12956;SDS011;6543;48.836;10.092;2023-08-21T04:17:46;11.38;;;7.72;;
12956;SDS011;6543;48.836;10.092;2023-08-21T04:20:13;8.65;;;7.68;;
12956;SDS011;6543;48.836;10.092;2023-08-21T04:22:40;8.50;;;7.65;;
12956;SDS011;6543;48.836;10.092;2023-08-21T04:25:07;10.52;;;7.95;;
12956;SDS011;6543;48.836;10.092;2023-08-21T04:27:34;16.65;;;8.40;;
12956;SDS011;6543;48.836;10.092;2023-08-21T04:30:01;11.00;;;8.02;;
12956;SDS011;6543;48.836;10.092;2023-08-21T04:32:30;9.90;;;7.78;;
12956;SDS011;6543;48.836;10.092;2023-08-21T04:34:57;11.18;;;8.75;;
12956;SDS011;6543;48.836;10.092;2023-08-21T04:37:24;11.20;;;8.45;;
12956;SDS011;6543;48.836;10.092;2023-08-21T04:39:50;9.70;;;7.68;;
12956;SDS011;6543;48.836;10.092;2023-08-21T04:42:18;8.90;;;8.02;;
12956;SDS011;6543;48.836;10.092;2023-08-21T04:44:45;10.90;;;7.80;;
12956;SDS011;6543;48.836;10.092;2023-08-21T04:47:21;12.73;;;8.57;;
12956;SDS011;6543;48.836;10.092;2023-08-21T04:49:50;12.13;;;8.27;;
12956;SDS011;6543;48.836;10.092;2023-08-21T04:52:18;10.82;;;7.55;;
12956;SDS011;6543;48.836;10.092;2023-08-21T04:54:44;9.38;;;8.38;;
12956;SDS011;6543;48.836;10.092;2023-08-21T04:57:11;12.02;;;7.97;;
12956;SDS011;6543;48.836;10.092;2023-08-21T04:59:39;10.05;;;7.55;;
12956;SDS011;6543;48.836;10.092;2023-08-21T05:02:06;10.25;;;8.23;;
12956;SDS011;6543;48.836;10.092;2023-08-21T05:04:33;8.85;;;7.20;;
12956;SDS011;6543;48.836;10.092;2023-08-21T05:07:03;8.18;;;7.38;;
12956;SDS011;6543;48.836;10.092;2023-08-21T05:09:30;9.30;;;7.68;;
12956;SDS011;6543;48.836;10.092;2023-08-21T05:11:57;10.65;;;7.63;;
12956;SDS011;6543;48.836;10.092;2023-08-21T05:14:24;10.57;;;7.78;;
12956;SDS011;6543;48.836;10.092;2023-08-21T05:16:51;7.97;;;7.18;;
12956;SDS011;6543;48.836;10.092;2023-08-21T05:19:18;8.07;;;7.03;;
12956;SDS011;6543;48.836;10.092;2023-08-21T05:21:45;10.85;;;7.80;;
12956;SDS011;6543;48.836;10.092;2023-08-21T05:24:13;8.30;;;7.03;;
12956;SDS011;6543;48.836;10.092;2023-08-21T05:26:40;10.63;;;7.30;;
12956;SDS011;6543;48.836;10.092;2023-08-21T05:29:07;10.63;;;7.50;;
12956;SDS011;6543;48.836;10.092;2023-08-21T05:31:34;11.30;;;7.20;;
12956;SDS011;6543;48.836;10.092;2023-08-21T05:34:01;11.90;;;7.03;;
12956;SDS011;6543;48.836;10.092;2023-08-21T05:36:27;8.52;;;7.57;;
12956;SDS011;6543;48.836;10.092;2023-08-21T05:38:55;9.85;;;7.18;;
12956;SDS011;6543;48.836;10.092;2023-08-21T05:41:24;8.88;;;7.07;;
12956;SDS011;6543;48.836;10.092;2023-08-21T05:43:51;10.13;;;7.13;;
12956;SDS011;6543;48.836;10.092;2023-08-21T05:46:18;8.40;;;7.00;;
12956;SDS011;6543;48.836;10.092;2023-08-21T05:48:44;6.95;;;6.25;;
12956;SDS011;6543;48.836;10.092;2023-08-21T05:51:11;7.60;;;6.88;;
12956;SDS011;6543;48.836;10.092;2023-08-21T05:53:39;8.35;;;6.75;;
12956;SDS011;6543;48.836;10.092;2023-08-21T05:56:05;8.35;;;7.47;;
12956;SDS011;6543;48.836;10.092;2023-08-21T05:58:34;9.27;;;6.95;;
12956;SDS011;6543;48.836;10.092;2023-08-21T06:01:00;8.88;;;6.90;;
12956;SDS011;6543;48.836;10.092;2023-08-21T06:03:27;12.57;;;6.70;;
12956;SDS011;6543;48.836;10.092;2023-08-21T06:05:54;11.13;;;7.63;;
12956;SDS011;6543;48.836;10.092;2023-08-21T06:08:21;14.60;;;6.82;;
12956;SDS011;6543;48.836;10.092;2023-08-21T06:10:51;8.68;;;6.90;;
12956;SDS011;6543;48.836;10.092;2023-08-21T06:13:18;9.80;;;6.68;;
12956;SDS011;6543;48.836;10.092;2023-08-21T06:15:47;11.70;;;7.38;;
12956;SDS011;6543;48.836;10.092;2023-08-21T06:18:14;13.23;;;7.60;;
12956;SDS011;6543;48.836;10.092;2023-08-21T06:20:41;11.15;;;7.60;;
12956;SDS011;6543;48.836;10.092;2023-08-21T06:23:08;14.02;;;6.50;;
12956;SDS011;6543;48.836;10.092;2023-08-21T06:25:36;8.00;;;6.57;;
12956;SDS011;6543;48.836;10.092;2023-08-21T06:28:03;8.15;;;6.07;;
12956;SDS011;6543;48.836;10.092;2023-08-21T06:30:31;7.78;;;6.32;;
12956;SDS011;6543;48.836;10.092;2023-08-21T06:32:59;9.68;;;5.82;;
12956;SDS011;6543;48.836;10.092;2023-08-21T06:35:26;6.88;;;6.15;;
12956;SDS011;6543;48.836;10.092;2023-08-21T06:37:53;7.53;;;6.10;;
12956;SDS011;6543;48.836;10.092;2023-08-21T06:40:20;8.90;;;5.78;;
12956;SDS011;6543;48.836;10.092;2023-08-21T06:42:47;9.85;;;6.35;;
12956;SDS011;6543;48.836;10.092;2023-08-21T06:45:15;10.32;;;5.95;;
12956;SDS011;6543;48.836;10.092;2023-08-21T06:47:42;8.55;;;6.50;;
12956;SDS011;6543;48.836;10.092;2023-08-21T06:50:11;10.90;;;6.03;;
12956;SDS011;6543;48.836;10.092;2023-08-21T06:52:38;10.48;;;6.40;;
12956;SDS011;6543;48.836;10.092;2023-08-21T06:55:05;7.72;;;6.15;;
12956;SDS011;6543;48.836;10.092;2023-08-21T06:57:33;6.35;;;5.78;;
12956;SDS011;6543;48.836;10.092;2023-08-21T07:00:00;8.02;;;6.00;;
12956;SDS011;6543;48.836;10.092;2023-08-21T07:02:27;8.57;;;5.95;;
12956;SDS011;6543;48.836;10.092;2023-08-21T07:04:53;9.93;;;6.60;;
12956;SDS011;6543;48.836;10.092;2023-08-21T07:07:22;8.73;;;5.97;;
12956;SDS011;6543;48.836;10.092;2023-08-21T07:09:49;7.60;;;6.50;;
12956;SDS011;6543;48.836;10.092;2023-08-21T07:12:16;13.07;;;6.60;;
12956;SDS011;6543;48.836;10.092;2023-08-21T07:14:43;10.32;;;6.57;;
12956;SDS011;6543;48.836;10.092;2023-08-21T07:17:10;11.77;;;6.30;;
12956;SDS011;6543;48.836;10.092;2023-08-21T07:19:37;9.10;;;6.20;;
12956;SDS011;6543;48.836;10.092;2023-08-21T07:22:04;8.95;;;5.70;;
12956;SDS011;6543;48.836;10.092;2023-08-21T07:24:32;9.50;;;6.50;;
12956;SDS011;6543;48.836;10.092;2023-08-21T07:26:59;6.90;;;6.28;;
12956;SDS011;6543;48.836;10.092;2023-08-21T07:29:26;8.05;;;6.88;;
12956;SDS011;6543;48.836;10.092;2023-08-21T07:31:52;8.25;;;7.05;;
12956;SDS011;6543;48.836;10.092;2023-08-21T07:34:19;12.65;;;7.13;;
12956;SDS011;6543;48.836;10.092;2023-08-21T07:36:46;7.95;;;7.07;;
12956;SDS011;6543;48.836;10.092;2023-08-21T07:39:13;7.80;;;6.10;;
12956;SDS011;6543;48.836;10.092;2023-08-21T07:41:41;7.72;;;6.38;;
12956;SDS011;6543;48.836;10.092;2023-08-21T07:44:08;12.55;;;6.82;;
12956;SDS011;6543;48.836;10.092;2023-08-21T07:46:34;10.18;;;6.18;;
12956;SDS011;6543;48.836;10.092;2023-08-21T07:49:01;11.27;;;6.15;;
12956;SDS011;6543;48.836;10.092;2023-08-21T07:51:28;10.32;;;6.05;;
12956;SDS011;6543;48.836;10.092;2023-08-21T07:53:55;11.18;;;6.05;;
12956;SDS011;6543;48.836;10.092;2023-08-21T07:56:22;8.25;;;6.20;;
12956;SDS011;6543;48.836;10.092;2023-08-21T07:58:50;8.15;;;6.07;;
12956;SDS011;6543;48.836;10.092;2023-08-21T08:01:17;11.60;;;5.90;;
12956;SDS011;6543;48.836;10.092;2023-08-21T08:03:45;7.65;;;5.60;;
12956;SDS011;6543;48.836;10.092;2023-08-21T08:06:12;9.05;;;5.75;;
12956;SDS011;6543;48.836;10.092;2023-08-21T08:08:39;9.77;;;5.65;;
12956;SDS011;6543;48.836;10.092;2023-08-21T08:11:06;11.20;;;6.15;;
12956;SDS011;6543;48.836;10.092;2023-08-21T08:13:33;8.00;;;5.70;;
12956;SDS011;6543;48.836;10.092;2023-08-21T08:16:01;8.57;;;5.45;;
12956;SDS011;6543;48.836;10.092;2023-08-21T08:18:28;6.28;;;5.65;;
12956;SDS011;6543;48.836;10.092;2023-08-21T08:20:55;6.95;;;5.20;;
12956;SDS011;6543;48.836;10.092;2023-08-21T08:23:22;14.82;;;6.38;;
12956;SDS011;6543;48.836;10.092;2023-08-21T08:25:49;8.93;;;5.82;;
12956;SDS011;6543;48.836;10.092;2023-08-21T08:28:16;8.57;;;5.78;;
12956;SDS011;6543;48.836;10.092;2023-08-21T08:30:43;8.80;;;6.32;;
12956;SDS011;6543;48.836;10.092;2023-08-21T08:33:12;8.75;;;5.72;;
12956;SDS011;6543;48.836;10.092;2023-08-21T08:35:39;9.68;;;5.20;;
12956;SDS011;6543;48.836;10.092;2023-08-21T08:38:06;6.88;;;4.95;;
12956;SDS011;6543;48.836;10.092;2023-08-21T08:40:33;6.82;;;5.03;;
12956;SDS011;6543;48.836;10.092;2023-08-21T08:43:09;6.88;;;5.40;;
12956;SDS011;6543;48.836;10.092;2023-08-21T08:45:37;7.32;;;5.38;;
12956;SDS011;6543;48.836;10.092;2023-08-21T08:48:06;9.32;;;5.70;;
12956;SDS011;6543;48.836;10.092;2023-08-21T08:50:34;7.25;;;5.38;;
12956;SDS011;6543;48.836;10.092;2023-08-21T08:53:04;8.45;;;5.35;;
12956;SDS011;6543;48.836;10.092;2023-08-21T08:55:32;9.25;;;5.60;;
12956;SDS011;6543;48.836;10.092;2023-08-21T08:57:59;6.88;;;5.25;;
12956;SDS011;6543;48.836;10.092;2023-08-21T09:00:26;8.57;;;5.93;;
12956;SDS011;6543;48.836;10.092;2023-08-21T09:02:53;10.07;;;5.82;;
12956;SDS011;6543;48.836;10.092;2023-08-21T09:05:21;5.30;;;4.80;;
12956;SDS011;6543;48.836;10.092;2023-08-21T09:07:59;8.38;;;5.60;;
12956;SDS011;6543;48.836;10.092;2023-08-21T09:10:29;7.18;;;5.20;;
12956;SDS011;6543;48.836;10.092;2023-08-21T09:12:57;6.25;;;5.43;;
12956;SDS011;6543;48.836;10.092;2023-08-21T09:15:27;5.25;;;4.82;;
12956;SDS011;6543;48.836;10.092;2023-08-21T09:17:55;6.03;;;4.50;;
12956;SDS011;6543;48.836;10.092;2023-08-21T09:20:22;6.45;;;4.97;;
12956;SDS011;6543;48.836;10.092;2023-08-21T09:22:52;6.72;;;4.82;;
12956;SDS011;6543;48.836;10.092;2023-08-21T09:25:22;8.07;;;5.20;;
12956;SDS011;6543;48.836;10.092;2023-08-21T09:27:53;5.22;;;4.60;;
12956;SDS011;6543;48.836;10.092;2023-08-21T09:30:19;10.50;;;4.70;;
12956;SDS011;6543;48.836;10.092;2023-08-21T09:32:53;7.82;;;4.50;;
12956;SDS011;6543;48.836;10.092;2023-08-21T09:35:21;6.95;;;5.10;;
12956;SDS011;6543;48.836;10.092;2023-08-21T09:37:48;5.90;;;4.78;;
12956;SDS011;6543;48.836;10.092;2023-08-21T09:40:18;5.97;;;4.78;;
12956;SDS011;6543;48.836;10.092;2023-08-21T09:42:46;7.13;;;4.97;;
12956;SDS011;6543;48.836;10.092;2023-08-21T09:45:19;6.53;;;4.85;;
12956;SDS011;6543;48.836;10.092;2023-08-21T09:47:47;8.60;;;5.40;;
12956;SDS011;6543;48.836;10.092;2023-08-21T09:50:14;7.13;;;5.20;;
12956;SDS011;6543;48.836;10.092;2023-08-21T09:52:42;8.15;;;5.40;;
12956;SDS011;6543;48.836;10.092;2023-08-21T09:55:10;7.63;;;4.97;;
12956;SDS011;6543;48.836;10.092;2023-08-21T09:57:39;8.57;;;4.85;;
12956;SDS011;6543;48.836;10.092;2023-08-21T10:00:09;6.85;;;5.05;;
12956;SDS011;6543;48.836;10.092;2023-08-21T10:02:40;12.50;;;4.82;;
12956;SDS011;6543;48.836;10.092;2023-08-21T10:05:10;6.20;;;4.82;;
12956;SDS011;6543;48.836;10.092;2023-08-21T10:07:39;7.38;;;5.30;;
12956;SDS011;6543;48.836;10.092;2023-08-21T10:10:07;7.97;;;4.97;;
12956;SDS011;6543;48.836;10.092;2023-08-21T10:12:35;9.75;;;5.10;;
12956;SDS011;6543;48.836;10.092;2023-08-21T10:15:02;6.47;;;4.82;;
12956;SDS011;6543;48.836;10.092;2023-08-21T10:17:31;5.82;;;5.03;;
12956;SDS011;6543;48.836;10.092;2023-08-21T10:20:02;5.43;;;4.50;;
12956;SDS011;6543;48.836;10.092;2023-08-21T10:22:39;6.78;;;4.85;;
12956;SDS011;6543;48.836;10.092;2023-08-21T10:25:14;5.00;;;4.25;;
12956;SDS011;6543;48.836;10.092;2023-08-21T10:27:42;8.65;;;4.20;;
12956;SDS011;6543;48.836;10.092;2023-08-21T10:30:12;6.43;;;4.68;;
12956;SDS011;6543;48.836;10.092;2023-08-21T10:32:45;10.95;;;5.55;;
12956;SDS011;6543;48.836;10.092;2023-08-21T10:35:17;9.43;;;4.43;;
12956;SDS011;6543;48.836;10.092;2023-08-21T10:40:32;8.00;;;4.68;;
12956;SDS011;6543;48.836;10.092;2023-08-21T10:42:59;7.57;;;5.10;;
12956;SDS011;6543;48.836;10.092;2023-08-21T10:45:27;10.57;;;4.07;;
12956;SDS011;6543;48.836;10.092;2023-08-21T10:47:57;5.55;;;4.30;;
12956;SDS011;6543;48.836;10.092;2023-08-21T10:50:24;7.63;;;4.43;;
12956;SDS011;6543;48.836;10.092;2023-08-21T10:52:51;6.10;;;4.15;;
12956;SDS011;6543;48.836;10.092;2023-08-21T10:55:19;11.48;;;4.70;;
12956;SDS011;6543;48.836;10.092;2023-08-21T10:57:47;9.18;;;4.45;;
12956;SDS011;6543;48.836;10.092;2023-08-21T11:00:16;5.55;;;4.50;;
12956;SDS011;6543;48.836;10.092;2023-08-21T11:02:46;6.38;;;4.25;;
12956;SDS011;6543;48.836;10.092;2023-08-21T11:05:15;10.18;;;5.07;;
12956;SDS011;6543;48.836;10.092;2023-08-21T11:07:43;11.45;;;5.43;;
12956;SDS011;6543;48.836;10.092;2023-08-21T11:10:11;10.98;;;4.85;;
12956;SDS011;6543;48.836;10.092;2023-08-21T11:12:48;6.85;;;4.60;;
12956;SDS011;6543;48.836;10.092;2023-08-21T11:15:15;7.78;;;4.90;;
12956;SDS011;6543;48.836;10.092;2023-08-21T11:17:50;10.07;;;4.68;;
12956;SDS011;6543;48.836;10.092;2023-08-21T11:20:19;7.75;;;4.75;;
12956;SDS011;6543;48.836;10.092;2023-08-21T11:22:47;7.20;;;4.57;;
12956;SDS011;6543;48.836;10.092;2023-08-21T11:25:15;9.93;;;4.82;;
12956;SDS011;6543;48.836;10.092;2023-08-21T11:27:45;7.65;;;4.57;;
12956;SDS011;6543;48.836;10.092;2023-08-21T11:30:12;5.35;;;4.32;;
12956;SDS011;6543;48.836;10.092;2023-08-21T11:32:39;5.47;;;4.07;;
12956;SDS011;6543;48.836;10.092;2023-08-21T11:35:06;10.32;;;4.47;;
12956;SDS011;6543;48.836;10.092;2023-08-21T11:37:42;6.43;;;4.45;;
12956;SDS011;6543;48.836;10.092;2023-08-21T11:40:10;7.07;;;4.22;;
12956;SDS011;6543;48.836;10.092;2023-08-21T11:42:39;9.05;;;4.45;;
12956;SDS011;6543;48.836;10.092;2023-08-21T11:45:06;9.27;;;4.90;;
12956;SDS011;6543;48.836;10.092;2023-08-21T11:47:36;8.48;;;4.47;;
12956;SDS011;6543;48.836;10.092;2023-08-21T11:50:03;6.85;;;4.65;;
12956;SDS011;6543;48.836;10.092;2023-08-21T11:52:32;5.95;;;4.90;;
12956;SDS011;6543;48.836;10.092;2023-08-21T11:55:06;7.30;;;4.70;;
12956;SDS011;6543;48.836;10.092;2023-08-21T11:57:35;9.73;;;4.60;;
12956;SDS011;6543;48.836;10.092;2023-08-21T12:00:13;6.97;;;4.40;;
12956;SDS011;6543;48.836;10.092;2023-08-21T12:02:43;13.82;;;4.53;;
12956;SDS011;6543;48.836;10.092;2023-08-21T12:05:20;8.07;;;4.43;;
12956;SDS011;6543;48.836;10.092;2023-08-21T12:07:47;6.53;;;5.00;;
12956;SDS011;6543;48.836;10.092;2023-08-21T12:10:15;6.80;;;4.93;;
12956;SDS011;6543;48.836;10.092;2023-08-21T12:12:48;9.00;;;5.03;;
12956;SDS011;6543;48.836;10.092;2023-08-21T12:15:15;7.82;;;4.50;;
12956;SDS011;6543;48.836;10.092;2023-08-21T12:17:42;8.13;;;4.68;;
12956;SDS011;6543;48.836;10.092;2023-08-21T12:20:09;11.02;;;5.30;;
12956;SDS011;6543;48.836;10.092;2023-08-21T12:22:36;7.38;;;4.45;;
12956;SDS011;6543;48.836;10.092;2023-08-21T12:25:04;9.23;;;5.28;;
12956;SDS011;6543;48.836;10.092;2023-08-21T12:27:33;7.82;;;5.05;;
12956;SDS011;6543;48.836;10.092;2023-08-21T12:30:00;14.23;;;5.53;;
12956;SDS011;6543;48.836;10.092;2023-08-21T12:32:27;10.85;;;4.70;;
12956;SDS011;6543;48.836;10.092;2023-08-21T12:34:54;12.40;;;5.22;;
12956;SDS011;6543;48.836;10.092;2023-08-21T12:37:21;8.90;;;4.97;;
12956;SDS011;6543;48.836;10.092;2023-08-21T12:39:48;9.27;;;5.80;;
12956;SDS011;6543;48.836;10.092;2023-08-21T12:42:15;9.27;;;5.47;;
12956;SDS011;6543;48.836;10.092;2023-08-21T12:44:44;11.05;;;4.90;;
12956;SDS011;6543;48.836;10.092;2023-08-21T12:47:10;6.55;;;5.13;;
12956;SDS011;6543;48.836;10.092;2023-08-21T12:49:37;11.38;;;5.82;;
12956;SDS011;6543;48.836;10.092;2023-08-21T12:52:04;9.68;;;5.35;;
12956;SDS011;6543;48.836;10.092;2023-08-21T12:54:32;15.57;;;4.88;;
12956;SDS011;6543;48.836;10.092;2023-08-21T12:56:58;10.13;;;5.05;;
12956;SDS011;6543;48.836;10.092;2023-08-21T12:59:25;5.50;;;4.95;;
12956;SDS011;6543;48.836;10.092;2023-08-21T13:01:54;7.75;;;5.35;;
12956;SDS011;6543;48.836;10.092;2023-08-21T13:04:20;8.57;;;5.05;;
12956;SDS011;6543;48.836;10.092;2023-08-21T13:06:47;10.00;;;5.57;;
12956;SDS011;6543;48.836;10.092;2023-08-21T13:09:14;6.70;;;5.47;;
12956;SDS011;6543;48.836;10.092;2023-08-21T13:11:41;8.80;;;5.22;;
12956;SDS011;6543;48.836;10.092;2023-08-21T13:14:08;11.65;;;5.88;;
12956;SDS011;6543;48.836;10.092;2023-08-21T13:16:35;8.18;;;5.40;;
12956;SDS011;6543;48.836;10.092;2023-08-21T13:19:03;10.30;;;5.28;;
12956;SDS011;6543;48.836;10.092;2023-08-21T13:21:30;10.52;;;5.45;;
12956;SDS011;6543;48.836;10.092;2023-08-21T13:23:57;8.18;;;5.22;;
12956;SDS011;6543;48.836;10.092;2023-08-21T13:26:23;9.95;;;5.47;;
12956;SDS011;6543;48.836;10.092;2023-08-21T13:28:54;10.35;;;5.45;;
12956;SDS011;6543;48.836;10.092;2023-08-21T13:31:21;9.27;;;5.50;;
12956;SDS011;6543;48.836;10.092;2023-08-21T13:33:49;7.38;;;5.50;;
12956;SDS011;6543;48.836;10.092;2023-08-21T13:36:20;8.60;;;5.75;;
12956;SDS011;6543;48.836;10.092;2023-08-21T13:38:47;8.35;;;5.90;;
12956;SDS011;6543;48.836;10.092;2023-08-21T13:41:13;8.52;;;5.50;;
12956;SDS011;6543;48.836;10.092;2023-08-21T13:43:40;6.38;;;5.22;;
12956;SDS011;6543;48.836;10.092;2023-08-21T13:46:07;9.00;;;5.70;;
12956;SDS011;6543;48.836;10.092;2023-08-21T13:48:34;11.40;;;5.00;;
12956;SDS011;6543;48.836;10.092;2023-08-21T13:51:01;5.53;;;5.00;;
12956;SDS011;6543;48.836;10.092;2023-08-21T13:53:29;6.00;;;4.88;;
12956;SDS011;6543;48.836;10.092;2023-08-21T13:55:56;8.35;;;5.55;;
12956;SDS011;6543;48.836;10.092;2023-08-21T13:58:22;7.38;;;5.18;;
12956;SDS011;6543;48.836;10.092;2023-08-21T14:00:49;5.55;;;4.70;;
12956;SDS011;6543;48.836;10.092;2023-08-21T14:03:16;9.43;;;5.00;;
12956;SDS011;6543;48.836;10.092;2023-08-21T14:05:43;13.07;;;5.30;;
12956;SDS011;6543;48.836;10.092;2023-08-21T14:08:10;6.32;;;5.72;;
12956;SDS011;6543;48.836;10.092;2023-08-21T14:10:39;9.75;;;5.20;;
12956;SDS011;6543;48.836;10.092;2023-08-21T14:13:05;9.45;;;5.47;;
12956;SDS011;6543;48.836;10.092;2023-08-21T14:15:33;6.80;;;5.22;;
12956;SDS011;6543;48.836;10.092;2023-08-21T14:18:00;9.27;;;5.05;;
12956;SDS011;6543;48.836;10.092;2023-08-21T14:20:27;7.60;;;5.30;;
12956;SDS011;6543;48.836;10.092;2023-08-21T14:22:54;8.75;;;5.10;;
12956;SDS011;6543;48.836;10.092;2023-08-21T14:25:21;6.65;;;4.72;;
12956;SDS011;6543;48.836;10.092;2023-08-21T14:27:49;11.15;;;4.93;;
12956;SDS011;6543;48.836;10.092;2023-08-21T14:30:16;9.32;;;5.35;;
12956;SDS011;6543;48.836;10.092;2023-08-21T14:32:43;8.68;;;5.00;;
12956;SDS011;6543;48.836;10.092;2023-08-21T14:35:10;7.75;;;4.60;;
12956;SDS011;6543;48.836;10.092;2023-08-21T14:37:37;7.80;;;4.97;;
12956;SDS011;6543;48.836;10.092;2023-08-21T14:40:05;9.48;;;5.20;;
12956;SDS011;6543;48.836;10.092;2023-08-21T14:42:34;11.88;;;4.97;;
12956;SDS011;6543;48.836;10.092;2023-08-21T14:45:03;7.75;;;5.05;;
12956;SDS011;6543;48.836;10.092;2023-08-21T14:47:30;8.65;;;6.30;;
12956;SDS011;6543;48.836;10.092;2023-08-21T14:49:58;7.63;;;5.22;;